メインページ
METAR-TAF:

METAR-TAF

空港 :

ナナイモ空港

ナナイモ, ブリティッシュコロンビア州, カナダ

緯度: 49-03N, 経度: 123-52W, 海抜: 28m

現時点の気象観測

当レポートは7時間14分前の04:00(UTC)に作成
西/南西の風 2kt
気温 11°C
湿度 71%
気圧 1018 hPa
視程: 24.1km
高度4500ftの雲はほとんどない
高度24000ftの雲はほとんどない

METAR: CYCD 210400Z 24002KT 15SM FEW045 FEW240 11/06 A3007 RMK SC1CI1 CI TR LAST STFD OBS/NEXT 211300Z SLP185

時間: 04:14 (11:14 UTC)

予報

当レポートは11時間36分前の23:38(UTC)に作成
予報は21日の 00時(UTC)から 21日の 04時(UTC)まで有効
の風 5kt
視程: 10km
高度5000ftの雲はほとんどない
高度24000ftの雲はほとんどない

TAF: CYCD 202338Z 2100/2104 01005KT P6SM FEW050 FEW240 RMK NXT FCST WILL BE ISSUED AT 211445Z

4,000以上の空港の気象観測と天気予報(METAR報とTAF報)

利用可能な観測所は地図上に黄色い丸と赤い丸で示す。

丸の上にカーソルを重ねると観測所名を参照できる。

次にクリックすると気象観測と天気予報を参照できる。

マップの切り替え:黒色「×」印の緑ボタンをクリックして拡大、「-」印の緑ボタンをクリックして縮小、緑色の三角印をクリックして隣りの地図に切り替え


METAR-TAF: